createdAt,value
2022-08-26T00:01:13.471Z,83.66
2022-08-26T00:03:40.654Z,84.24
2022-08-26T00:06:08.790Z,84.21
2022-08-26T00:08:35.996Z,84.55
2022-08-26T00:11:06.009Z,85.26
2022-08-26T00:13:35.654Z,84.71
2022-08-26T00:16:03.624Z,84.43
2022-08-26T00:18:31.153Z,84.60
2022-08-26T00:21:06.821Z,84.68
2022-08-26T00:23:34.192Z,84.70
2022-08-26T00:26:01.953Z,85.71
2022-08-26T00:28:29.022Z,86.16
2022-08-26T00:30:56.180Z,86.86
2022-08-26T00:33:23.256Z,87.04
2022-08-26T00:35:50.592Z,86.32
2022-08-26T00:38:18.826Z,86.35
2022-08-26T00:40:47.955Z,86.75
2022-08-26T00:43:15.750Z,86.98
2022-08-26T00:45:45.203Z,86.63
2022-08-26T00:48:14.801Z,86.75
2022-08-26T00:50:45.539Z,86.55
2022-08-26T00:53:24.180Z,86.48
2022-08-26T00:55:53.762Z,86.74
2022-08-26T00:58:22.505Z,87.15
2022-08-26T01:00:49.682Z,87.43
2022-08-26T01:03:19.605Z,87.35
2022-08-26T01:05:48.058Z,86.82
2022-08-26T01:08:15.211Z,86.64
2022-08-26T01:10:42.548Z,87.22
2022-08-26T01:13:12.761Z,87.47
2022-08-26T01:15:45.225Z,88.27
2022-08-26T01:18:13.339Z,89.57
2022-08-26T01:21:01.994Z,89.38
2022-08-26T01:23:32.442Z,88.86
2022-08-26T01:26:02.925Z,89.55
2022-08-26T01:28:33.933Z,90.33
2022-08-26T01:31:02.998Z,91.22
2022-08-26T01:33:40.004Z,92.06
2022-08-26T01:36:09.782Z,92.24
2022-08-26T01:38:36.811Z,91.42
2022-08-26T01:41:04.380Z,91.04
2022-08-26T01:43:45.924Z,90.72
2022-08-26T01:46:14.235Z,91.37
2022-08-26T01:48:42.392Z,92.16
2022-08-26T01:51:11.180Z,92.60
2022-08-26T01:53:39.066Z,93.21
2022-08-26T01:56:10.411Z,93.53
2022-08-26T01:58:46.709Z,93.79
2022-08-26T02:01:14.594Z,94.38
2022-08-26T02:03:51.410Z,94.43
2022-08-26T02:06:19.754Z,94.83
2022-08-26T02:08:51.670Z,94.00
2022-08-26T02:11:19.067Z,93.67
2022-08-26T02:13:48.808Z,94.58
2022-08-26T02:16:18.378Z,95.01
2022-08-26T02:18:47.082Z,94.58
2022-08-26T02:21:14.395Z,94.15
2022-08-26T02:23:42.603Z,94.00
2022-08-26T02:26:18.031Z,93.83
2022-08-26T02:28:50.392Z,93.28
2022-08-26T02:31:17.658Z,93.45
2022-08-26T02:33:44.790Z,93.09
2022-08-26T02:36:12.096Z,93.55
2022-08-26T02:38:40.504Z,93.27
2022-08-26T02:41:11.221Z,94.06
2022-08-26T02:43:38.351Z,94.01
2022-08-26T02:46:05.985Z,93.97
2022-08-26T02:48:33.373Z,93.81
2022-08-26T02:51:01.816Z,93.85
2022-08-26T02:53:32.082Z,93.65
2022-08-26T02:56:03.587Z,93.76
2022-08-26T02:58:30.604Z,94.31
2022-08-26T03:00:57.690Z,94.16
2022-08-26T03:03:25.307Z,94.27
2022-08-26T03:05:53.413Z,94.22
2022-08-26T03:08:22.223Z,94.33
2022-08-26T03:10:49.353Z,94.24
2022-08-26T03:13:16.738Z,94.20
2022-08-26T03:15:44.382Z,94.02
2022-08-26T03:18:13.267Z,94.03
2022-08-26T03:20:40.305Z,94.32
2022-08-26T03:23:09.039Z,94.17
2022-08-26T03:25:36.247Z,94.57
2022-08-26T03:28:03.996Z,95.05
2022-08-26T03:30:45.440Z,95.33
2022-08-26T03:33:13.395Z,94.85
2022-08-26T03:35:41.720Z,94.63
2022-08-26T03:38:09.429Z,94.75
2022-08-26T03:40:37.129Z,95.11
2022-08-26T03:43:05.166Z,94.79
2022-08-26T03:45:33.502Z,95.13
2022-08-26T03:48:00.617Z,95.04
2022-08-26T03:50:29.372Z,95.29
2022-08-26T03:53:02.247Z,95.03
2022-08-26T03:55:31.979Z,95.39
2022-08-26T03:57:59.308Z,96.46
2022-08-26T04:00:26.349Z,97.39
2022-08-26T04:02:53.619Z,97.26
2022-08-26T04:05:21.832Z,96.93
2022-08-26T04:07:50.618Z,97.13
2022-08-26T04:10:20.390Z,96.97
2022-08-26T04:12:47.637Z,97.44
2022-08-26T04:15:15.711Z,97.36
2022-08-26T04:17:43.116Z,97.39
2022-08-26T04:20:13.860Z,98.03
2022-08-26T04:22:44.093Z,98.38
2022-08-26T04:25:11.397Z,97.93
2022-08-26T04:27:38.862Z,98.08
2022-08-26T04:30:08.939Z,98.58
2022-08-26T04:32:37.311Z,98.36
2022-08-26T04:35:05.035Z,98.19
2022-08-26T04:37:33.581Z,98.39
2022-08-26T04:40:00.841Z,98.19
2022-08-26T04:42:29.277Z,97.99
2022-08-26T04:44:56.381Z,98.07
2022-08-26T04:47:23.441Z,98.01
2022-08-26T04:49:51.723Z,98.31
2022-08-26T04:52:19.390Z,98.38
2022-08-26T04:54:47.053Z,98.47
2022-08-26T04:57:14.080Z,98.75
2022-08-26T04:59:41.116Z,100.00
2022-08-26T05:02:08.192Z,100.00
2022-08-26T05:04:36.225Z,100.00
2022-08-26T05:07:03.752Z,100.00
2022-08-26T05:09:30.801Z,100.00
2022-08-26T05:11:57.856Z,99.72
2022-08-26T05:14:25.014Z,99.70
2022-08-26T05:16:52.196Z,99.85
2022-08-26T05:19:19.768Z,99.99
2022-08-26T05:21:48.692Z,99.97
2022-08-26T05:24:16.591Z,99.98
2022-08-26T05:26:44.438Z,100.00
2022-08-26T05:29:12.109Z,100.00
2022-08-26T05:31:39.202Z,99.86
2022-08-26T05:34:06.984Z,100.00
2022-08-26T05:36:36.202Z,100.00
2022-08-26T05:39:04.919Z,100.00
2022-08-26T05:41:36.133Z,100.00
2022-08-26T05:44:05.052Z,100.00
2022-08-26T05:46:32.209Z,100.00
2022-08-26T05:48:59.588Z,99.85
2022-08-26T05:51:27.281Z,99.83
2022-08-26T05:53:57.598Z,100.00
2022-08-26T05:56:27.438Z,100.00
2022-08-26T05:58:55.496Z,100.00
2022-08-26T06:01:25.528Z,100.00
2022-08-26T06:03:54.697Z,100.00
2022-08-26T06:06:27.918Z,100.00
2022-08-26T06:08:59.122Z,100.00
2022-08-26T06:11:27.162Z,100.00
2022-08-26T06:13:56.378Z,100.00
2022-08-26T06:16:26.088Z,100.00
2022-08-26T06:18:53.691Z,100.00
2022-08-26T06:21:28.451Z,100.00
2022-08-26T06:24:15.640Z,100.00
2022-08-26T06:26:46.907Z,100.00
2022-08-26T06:29:24.416Z,100.00
2022-08-26T06:31:53.115Z,100.00
2022-08-26T06:34:20.706Z,100.00
2022-08-26T06:36:49.246Z,100.00
2022-08-26T06:39:20.150Z,100.00
2022-08-26T06:41:47.620Z,98.86
2022-08-26T06:44:44.814Z,99.33
2022-08-26T06:47:12.230Z,98.93
2022-08-26T06:49:39.788Z,98.49
2022-08-26T06:52:07.028Z,96.59
2022-08-26T06:54:35.383Z,94.80
2022-08-26T06:57:05.937Z,93.19
2022-08-26T06:59:34.223Z,92.63
2022-08-26T07:02:02.351Z,92.54
2022-08-26T07:04:29.702Z,91.24
2022-08-26T07:06:56.790Z,90.42
2022-08-26T07:09:25.561Z,88.55
2022-08-26T07:11:53.474Z,88.11
2022-08-26T07:14:27.377Z,87.67
2022-08-26T07:16:54.925Z,87.72
2022-08-26T07:19:30.607Z,86.30
2022-08-26T07:22:00.083Z,86.86
2022-08-26T07:24:30.403Z,86.79
2022-08-26T07:27:02.682Z,84.72
2022-08-26T07:29:30.188Z,82.60
2022-08-26T07:31:57.276Z,83.50
2022-08-26T07:34:25.393Z,83.22
2022-08-26T07:36:55.670Z,82.09
2022-08-26T07:39:22.781Z,81.81
2022-08-26T07:41:50.336Z,80.75
2022-08-26T07:44:17.590Z,81.09
2022-08-26T07:46:52.380Z,80.09
2022-08-26T07:49:21.706Z,79.54
2022-08-26T07:51:49.830Z,78.52
2022-08-26T07:54:17.031Z,78.96
2022-08-26T07:56:44.624Z,79.00
2022-08-26T07:59:13.616Z,79.16
2022-08-26T08:01:41.309Z,77.69
2022-08-26T08:04:17.196Z,77.95
2022-08-26T08:06:45.310Z,77.16
2022-08-26T08:09:13.649Z,75.52
2022-08-26T08:11:41.443Z,75.15
2022-08-26T08:14:11.803Z,75.38
2022-08-26T08:16:42.361Z,73.95
2022-08-26T08:19:13.582Z,73.18
2022-08-26T08:21:41.976Z,74.06
2022-08-26T08:24:11.142Z,73.92
2022-08-26T08:26:38.590Z,73.63
2022-08-26T08:29:06.043Z,71.06
2022-08-26T08:31:56.185Z,71.02
2022-08-26T08:34:21.620Z,70.83
2022-08-26T08:36:50.322Z,70.39
2022-08-26T08:39:20.639Z,70.76
2022-08-26T08:41:58.073Z,71.04
2022-08-26T08:47:03.793Z,69.50
2022-08-26T08:49:32.777Z,71.77
2022-08-26T08:52:20.124Z,71.51
2022-08-26T08:54:47.581Z,70.54
2022-08-26T08:57:22.124Z,70.74
2022-08-26T08:59:56.829Z,69.01
2022-08-26T09:02:30.572Z,70.70
2022-08-26T09:05:02.953Z,69.28
2022-08-26T09:07:37.550Z,69.68
2022-08-26T09:10:17.183Z,68.04
2022-08-26T09:12:45.723Z,69.44
2022-08-26T09:15:24.648Z,68.81
2022-08-26T09:18:10.916Z,68.25
2022-08-26T09:20:47.525Z,66.53
2022-08-26T09:23:16.156Z,66.42
2022-08-26T09:25:47.443Z,64.52
2022-08-26T09:28:22.189Z,65.11
2022-08-26T09:31:11.212Z,65.33
2022-08-26T09:33:40.267Z,64.63
2022-08-26T09:36:22.988Z,64.03
2022-08-26T09:38:52.689Z,64.50
2022-08-26T09:41:33.264Z,64.82
2022-08-26T09:44:14.555Z,63.77
2022-08-26T09:46:45.717Z,64.66
2022-08-26T09:49:26.692Z,65.21
2022-08-26T09:52:11.714Z,65.29
2022-08-26T09:54:39.714Z,65.46
2022-08-26T09:57:11.274Z,65.51
2022-08-26T09:59:38.453Z,64.55
2022-08-26T10:02:17.355Z,63.81
2022-08-26T10:04:56.343Z,63.39
2022-08-26T10:07:36.306Z,62.96
2022-08-26T10:10:05.722Z,63.01
2022-08-26T10:12:34.766Z,63.41
2022-08-26T10:15:08.288Z,63.06
2022-08-26T10:17:35.699Z,63.11
2022-08-26T10:20:22.844Z,63.25
2022-08-26T10:22:53.427Z,63.36
2022-08-26T10:25:23.411Z,63.38
2022-08-26T10:27:54.113Z,63.40
2022-08-26T10:30:26.404Z,63.19
2022-08-26T10:33:00.781Z,63.10
2022-08-26T10:35:28.085Z,63.97
2022-08-26T10:37:57.348Z,64.70
2022-08-26T10:40:27.303Z,64.97
2022-08-26T10:43:14.153Z,65.85
2022-08-26T10:45:48.923Z,65.70
2022-08-26T10:48:20.973Z,65.75
2022-08-26T10:50:48.331Z,65.21
2022-08-26T10:53:32.767Z,65.62
2022-08-26T10:56:02.944Z,65.67
2022-08-26T10:58:50.081Z,66.18
2022-08-26T11:01:35.820Z,66.55
2022-08-26T11:04:13.989Z,66.88
2022-08-26T11:06:41.855Z,67.00
2022-08-26T11:09:09.255Z,67.03
2022-08-26T11:11:39.360Z,67.40
2022-08-26T11:14:07.662Z,66.76
2022-08-26T11:16:42.897Z,66.96
2022-08-26T11:19:12.685Z,66.63
2022-08-26T11:21:47.809Z,66.68
2022-08-26T11:24:35.297Z,66.43
2022-08-26T11:27:02.917Z,66.98
2022-08-26T11:29:49.726Z,66.72
2022-08-26T11:32:24.907Z,66.82
2022-08-26T11:34:57.834Z,66.10
2022-08-26T11:37:32.321Z,66.05
2022-08-26T11:40:00.854Z,66.18
2022-08-26T11:42:41.682Z,66.12
2022-08-26T11:45:19.310Z,66.21
2022-08-26T11:47:46.841Z,66.25
2022-08-26T11:50:21.199Z,66.64
2022-08-26T11:53:06.061Z,66.26
2022-08-26T11:55:35.841Z,66.58
2022-08-26T11:58:05.759Z,66.86
2022-08-26T12:00:54.468Z,66.88
2022-08-26T12:03:25.131Z,66.59
2022-08-26T12:05:53.116Z,66.33
2022-08-26T12:08:23.192Z,66.53
2022-08-26T12:11:03.644Z,66.10
2022-08-26T12:13:30.911Z,66.51
2022-08-26T12:15:59.870Z,66.72
2022-08-26T12:18:31.519Z,66.46
2022-08-26T12:21:12.208Z,65.91
2022-08-26T12:23:41.817Z,65.78
2022-08-26T12:26:12.845Z,66.02
2022-08-26T12:28:47.356Z,66.19
2022-08-26T12:31:20.703Z,68.08
2022-08-26T12:33:48.750Z,68.05
2022-08-26T12:36:21.607Z,67.29
2022-08-26T12:38:49.712Z,67.82
2022-08-26T12:41:35.810Z,66.50
2022-08-26T12:44:02.906Z,66.32
2022-08-26T12:46:30.220Z,66.22
2022-08-26T12:49:01.143Z,65.93
2022-08-26T12:51:30.190Z,64.56
2022-08-26T12:53:57.961Z,64.65
2022-08-26T12:56:35.572Z,64.13
2022-08-26T12:59:05.319Z,65.40
2022-08-26T13:01:38.098Z,65.32
2022-08-26T13:04:06.565Z,65.65
2022-08-26T13:06:34.913Z,65.99
2022-08-26T13:09:06.086Z,66.57
2022-08-26T13:11:39.210Z,66.26
2022-08-26T13:14:07.764Z,66.34
2022-08-26T13:16:35.536Z,66.33
2022-08-26T13:19:05.637Z,66.51
2022-08-26T13:21:41.680Z,67.75
2022-08-26T13:24:11.714Z,68.18
2022-08-26T13:26:39.301Z,67.57
2022-08-26T13:29:10.203Z,67.80
2022-08-26T13:31:39.325Z,68.09
2022-08-26T13:34:07.477Z,67.78
2022-08-26T13:36:34.592Z,67.66
2022-08-26T13:39:01.780Z,67.81
2022-08-26T13:41:29.833Z,67.90
2022-08-26T13:43:57.380Z,67.72
2022-08-26T13:46:26.501Z,67.89
2022-08-26T13:48:54.546Z,67.36
2022-08-26T13:51:22.839Z,67.37
2022-08-26T13:53:50.421Z,67.63
2022-08-26T13:56:18.735Z,67.74
2022-08-26T13:58:46.215Z,67.59
2022-08-26T14:01:13.912Z,67.68
2022-08-26T14:03:41.631Z,67.48
2022-08-26T14:06:08.911Z,67.81
2022-08-26T14:08:36.864Z,68.73
2022-08-26T14:11:03.896Z,68.56
2022-08-26T14:13:30.980Z,68.88
2022-08-26T14:15:59.690Z,69.04
2022-08-26T14:18:29.907Z,68.11
2022-08-26T14:21:01.176Z,67.81
2022-08-26T14:23:28.271Z,67.93
2022-08-26T14:25:55.359Z,67.99
2022-08-26T14:28:23.158Z,68.08
2022-08-26T14:30:53.007Z,68.48
2022-08-26T14:33:23.480Z,68.13
2022-08-26T14:35:50.513Z,67.63
2022-08-26T14:38:17.759Z,68.00
2022-08-26T14:40:45.105Z,67.91
2022-08-26T14:43:15.106Z,67.79
2022-08-26T14:48:21.534Z,67.37
2022-08-26T14:52:02.831Z,66.79
2022-08-26T14:54:30.165Z,66.45
2022-08-26T14:56:59.437Z,66.56
2022-08-26T14:59:28.023Z,66.26
2022-08-26T15:01:55.590Z,66.41
2022-08-26T15:04:23.329Z,66.42
2022-08-26T15:06:50.946Z,66.77
2022-08-26T15:09:18.039Z,67.65
2022-08-26T15:11:45.074Z,68.38
2022-08-26T15:14:19.620Z,68.83
2022-08-26T15:16:47.909Z,68.82
2022-08-26T15:19:15.979Z,69.36
2022-08-26T15:21:43.888Z,69.44
2022-08-26T15:24:11.191Z,70.01
2022-08-26T15:26:40.695Z,69.77
2022-08-26T15:29:07.742Z,69.92
2022-08-26T15:31:35.138Z,69.71
2022-08-26T15:34:13.313Z,69.53
2022-08-26T15:36:44.902Z,69.70
2022-08-26T15:39:12.611Z,69.71
2022-08-26T15:41:39.705Z,70.42
2022-08-26T15:44:07.567Z,68.40
2022-08-26T15:46:38.584Z,68.36
2022-08-26T15:49:06.189Z,68.30
2022-08-26T15:51:45.692Z,68.24
2022-08-26T15:54:14.068Z,68.01
2022-08-26T15:56:41.091Z,68.38
2022-08-26T15:59:11.820Z,68.98
2022-08-26T16:01:39.494Z,69.38
2022-08-26T16:04:06.771Z,69.96
2022-08-26T16:06:34.797Z,70.04
2022-08-26T16:09:06.194Z,69.22
2022-08-26T16:11:33.930Z,68.75
2022-08-26T16:14:00.932Z,67.99
2022-08-26T16:16:28.021Z,67.62
2022-08-26T16:18:55.211Z,65.97
2022-08-26T16:21:24.326Z,64.04
2022-08-26T16:23:51.816Z,63.96
2022-08-26T16:26:20.531Z,64.10
2022-08-26T16:28:47.858Z,64.32
2022-08-26T16:31:15.299Z,63.98
2022-08-26T16:33:42.395Z,62.72
2022-08-26T16:36:10.106Z,63.54
2022-08-26T16:38:37.620Z,63.55
2022-08-26T16:41:05.467Z,63.20
2022-08-26T16:43:32.533Z,63.63
2022-08-26T16:45:59.722Z,63.78
2022-08-26T16:48:27.458Z,64.16
2022-08-26T16:50:55.584Z,64.03
2022-08-26T16:53:23.021Z,64.12
2022-08-26T16:55:50.828Z,64.09
2022-08-26T16:58:18.400Z,64.14
2022-08-26T17:00:45.447Z,64.84
2022-08-26T17:03:12.663Z,65.86
2022-08-26T17:05:40.273Z,66.90
2022-08-26T17:08:07.765Z,68.04
2022-08-26T17:10:35.095Z,69.55
2022-08-26T17:13:02.496Z,69.72
2022-08-26T17:15:29.764Z,70.80
2022-08-26T17:17:57.058Z,71.78
2022-08-26T17:20:24.866Z,71.91
2022-08-26T17:22:53.454Z,72.17
2022-08-26T17:25:22.549Z,72.59
2022-08-26T17:27:49.653Z,72.27
2022-08-26T17:30:17.752Z,73.19
2022-08-26T17:32:45.504Z,73.25
2022-08-26T17:35:13.320Z,73.32
2022-08-26T17:37:40.921Z,73.12
2022-08-26T17:40:11.246Z,73.23
2022-08-26T17:42:39.067Z,73.59
2022-08-26T17:45:07.128Z,73.13
2022-08-26T17:47:34.347Z,73.47
2022-08-26T17:50:01.698Z,73.57
2022-08-26T17:52:29.340Z,73.42
2022-08-26T17:54:56.893Z,74.27
2022-08-26T17:57:24.507Z,74.93
2022-08-26T17:59:52.777Z,75.06
2022-08-26T18:02:21.029Z,74.58
2022-08-26T18:04:48.608Z,74.81
2022-08-26T18:07:16.111Z,75.66
2022-08-26T18:09:43.193Z,76.30
2022-08-26T18:12:10.339Z,77.39
2022-08-26T18:14:37.541Z,78.00
2022-08-26T18:17:04.979Z,78.33
2022-08-26T18:19:34.412Z,77.90
2022-08-26T18:22:01.731Z,78.67
2022-08-26T18:24:30.415Z,80.35
2022-08-26T18:26:59.453Z,82.09
2022-08-26T18:29:27.920Z,81.78
2022-08-26T18:31:55.073Z,81.60
2022-08-26T18:34:22.270Z,82.16
2022-08-26T18:36:52.079Z,83.02
2022-08-26T18:39:19.476Z,83.31
2022-08-26T18:41:53.073Z,82.70
2022-08-26T18:44:23.894Z,82.76
2022-08-26T18:46:51.656Z,84.62
2022-08-26T18:49:20.289Z,85.26
2022-08-26T18:51:47.806Z,85.96
2022-08-26T18:54:14.930Z,86.81
2022-08-26T18:56:42.457Z,88.37
2022-08-26T18:59:10.226Z,87.48
2022-08-26T19:01:39.232Z,86.98
2022-08-26T19:04:06.966Z,87.45
2022-08-26T19:06:35.530Z,89.41
2022-08-26T19:09:04.421Z,90.03
2022-08-26T19:11:38.287Z,89.02
2022-08-26T19:14:13.531Z,90.90
2022-08-26T19:16:42.031Z,90.40
2022-08-26T19:19:09.713Z,89.90
2022-08-26T19:21:37.185Z,89.41
2022-08-26T19:24:06.039Z,88.87
2022-08-26T19:26:33.155Z,89.68
2022-08-26T19:29:00.322Z,90.68
2022-08-26T19:31:27.518Z,89.75
2022-08-26T19:33:56.595Z,89.07
2022-08-26T19:36:24.756Z,90.72
2022-08-26T19:38:52.447Z,90.63
2022-08-26T19:41:24.545Z,90.89
2022-08-26T19:43:55.450Z,91.11
2022-08-26T19:46:26.509Z,91.99
2022-08-26T19:48:55.745Z,92.94
2022-08-26T19:51:24.556Z,93.53
2022-08-26T19:53:52.749Z,94.69
2022-08-26T19:56:20.849Z,95.52
2022-08-26T19:58:48.515Z,94.25
2022-08-26T20:01:16.232Z,93.82
2022-08-26T20:03:44.036Z,93.77
2022-08-26T20:06:12.192Z,92.76
2022-08-26T20:08:39.981Z,93.91
2022-08-26T20:11:09.074Z,94.36
2022-08-26T20:13:36.500Z,95.80
2022-08-26T20:16:04.073Z,96.50
2022-08-26T20:18:50.031Z,97.21
2022-08-26T20:21:26.191Z,97.63
2022-08-26T20:24:00.975Z,98.58
2022-08-26T20:26:28.677Z,98.78
2022-08-26T20:28:56.395Z,98.65
2022-08-26T20:31:24.110Z,98.52
2022-08-26T20:33:51.680Z,99.01
2022-08-26T20:36:20.372Z,98.04
2022-08-26T20:38:47.764Z,98.11
2022-08-26T20:41:14.858Z,97.68
2022-08-26T20:43:45.038Z,97.04
2022-08-26T20:46:18.012Z,97.37
2022-08-26T20:48:47.222Z,96.74
2022-08-26T20:51:14.873Z,97.13
2022-08-26T20:53:41.977Z,97.71
2022-08-26T20:56:09.759Z,98.03
2022-08-26T20:58:37.447Z,97.63
2022-08-26T21:01:07.959Z,97.55
2022-08-26T21:03:35.973Z,97.55
2022-08-26T21:06:03.846Z,97.99
2022-08-26T21:08:33.063Z,99.81
2022-08-26T21:11:00.905Z,99.15
2022-08-26T21:13:42.831Z,99.91
2022-08-26T21:16:15.678Z,99.38
2022-08-26T21:18:42.971Z,100.00
2022-08-26T21:21:10.267Z,100.00
2022-08-26T21:23:37.743Z,100.00
2022-08-26T21:26:09.374Z,100.00
2022-08-26T21:28:37.289Z,100.00
2022-08-26T21:31:06.985Z,100.00
2022-08-26T21:33:35.733Z,100.00
2022-08-26T21:36:03.953Z,100.00
2022-08-26T21:38:31.170Z,100.00
2022-08-26T21:41:02.170Z,100.00
2022-08-26T21:43:35.180Z,100.00
2022-08-26T21:46:11.318Z,100.00
2022-08-26T21:48:39.079Z,100.00
2022-08-26T21:51:06.705Z,100.00
2022-08-26T21:53:34.191Z,100.00
2022-08-26T21:56:05.938Z,100.00
2022-08-26T21:58:33.072Z,100.00
2022-08-26T22:01:00.374Z,100.00
2022-08-26T22:03:27.846Z,100.00
2022-08-26T22:06:01.264Z,100.00
2022-08-26T22:08:30.153Z,100.00
2022-08-26T22:10:57.415Z,100.00
2022-08-26T22:13:26.354Z,100.00
2022-08-26T22:15:54.044Z,100.00
2022-08-26T22:18:21.493Z,100.00
2022-08-26T22:20:48.581Z,100.00
2022-08-26T22:23:15.681Z,100.00
2022-08-26T22:25:42.788Z,100.00
2022-08-26T22:28:10.045Z,100.00
2022-08-26T22:30:37.393Z,100.00
2022-08-26T22:33:04.615Z,100.00
2022-08-26T22:35:31.721Z,100.00
2022-08-26T22:37:59.173Z,100.00
2022-08-26T22:40:26.404Z,100.00
2022-08-26T22:42:55.617Z,100.00
2022-08-26T22:45:27.396Z,100.00
2022-08-26T22:47:54.718Z,100.00
2022-08-26T22:50:21.761Z,100.00
2022-08-26T22:52:48.847Z,100.00
2022-08-26T22:55:15.980Z,100.00
2022-08-26T22:57:43.069Z,100.00
2022-08-26T23:00:13.424Z,100.00
2022-08-26T23:02:41.250Z,100.00
2022-08-26T23:05:08.850Z,100.00
2022-08-26T23:07:36.565Z,100.00
2022-08-26T23:10:04.667Z,100.00
2022-08-26T23:12:32.516Z,100.00
2022-08-26T23:15:01.145Z,100.00
2022-08-26T23:17:28.289Z,100.00
2022-08-26T23:19:55.357Z,100.00
2022-08-26T23:22:22.383Z,100.00
2022-08-26T23:24:49.889Z,100.00
2022-08-26T23:27:17.092Z,100.00
2022-08-26T23:29:44.114Z,100.00
2022-08-26T23:32:11.251Z,100.00
2022-08-26T23:34:56.984Z,100.00
2022-08-26T23:37:25.654Z,100.00
2022-08-26T23:39:53.920Z,100.00
2022-08-26T23:42:21.027Z,100.00
2022-08-26T23:44:48.153Z,100.00
2022-08-26T23:47:16.030Z,100.00
2022-08-26T23:49:43.144Z,100.00
2022-08-26T23:52:29.464Z,100.00
2022-08-26T23:54:56.776Z,100.00
2022-08-26T23:57:25.205Z,100.00
2022-08-26T23:59:53.245Z,100.00
